Decoded Metar for SKCL (CALI in COLOMBIA) (IATA:CLO) | Meteo·Mobile Aviation Weather
aviador You're here:

SKCL Decoded Metar

CALI in COLOMBIA
Report Time2019-10-22 13:00:00
UTC Time2019-10-22 13:27:37
Flight Rules vfr VFR
Wind120° at 04 kt
W.Decomp.*RWY 19: 1.6 kt HW 3.7 kt LCW
Visibility9999 m
Phenomena:N/A
Clouds:Scattered 010 Hf
Broken 090 Hf
Expected CloudBase > 400 ft AGL from Temp-Dew spread
Ceiling9,000 ft
Temp21°C (ISA +12)
Dew Point20°C (94% RH)
QNH1019 hPa
Density Alt4,731 ft
Elevation3,179 ft
Report Wrong Elevation
Raw Report
METAR SKCL 221300Z 12004KT 9999 SCT010 BKN090 21/20 A3010 NOSIG=

Extra information for SKCL:More info

Metar Taf Metar & Taf Last 4 Metars F.Rules Stats Wind Profile Meteogram Temp Stats Airport Information Weather charts Add Link Nearby VenuesMetar ALERT Operation Metar Decoded Social comments